sensor_id;sensor_type;location;lat;lon;timestamp;pressure;altitude;pressure_sealevel;temperature;humidity
28181;BME280;15464;50.988;10.318;2023-07-31T00:02:17;98631.94;;;15.88;84.64
28181;BME280;15464;50.988;10.318;2023-07-31T00:04:44;98626.59;;;15.88;84.81
28181;BME280;15464;50.988;10.318;2023-07-31T00:07:11;98620.59;;;15.86;85.09
28181;BME280;15464;50.988;10.318;2023-07-31T00:09:37;98623.28;;;15.86;85.13
28181;BME280;15464;50.988;10.318;2023-07-31T00:12:04;98621.09;;;15.82;85.72
28181;BME280;15464;50.988;10.318;2023-07-31T00:14:31;98616.94;;;15.79;86.31
28181;BME280;15464;50.988;10.318;2023-07-31T00:16:58;98616.75;;;15.81;86.30
28181;BME280;15464;50.988;10.318;2023-07-31T00:19:24;98611.06;;;15.84;86.66
28181;BME280;15464;50.988;10.318;2023-07-31T00:21:51;98611.91;;;15.76;86.74
28181;BME280;15464;50.988;10.318;2023-07-31T00:24:18;98602.22;;;15.75;87.13
28181;BME280;15464;50.988;10.318;2023-07-31T00:26:44;98606.94;;;15.73;87.23
28181;BME280;15464;50.988;10.318;2023-07-31T00:29:11;98598.25;;;15.71;86.55
28181;BME280;15464;50.988;10.318;2023-07-31T00:31:38;98601.91;;;15.70;86.88
28181;BME280;15464;50.988;10.318;2023-07-31T00:34:04;98598.25;;;15.71;86.58
28181;BME280;15464;50.988;10.318;2023-07-31T00:36:31;98598.25;;;15.71;86.59
28181;BME280;15464;50.988;10.318;2023-07-31T00:38:58;98585.88;;;15.70;87.17
28181;BME280;15464;50.988;10.318;2023-07-31T00:41:24;98592.88;;;15.71;87.29
28181;BME280;15464;50.988;10.318;2023-07-31T00:43:51;98587.38;;;15.72;87.22
28181;BME280;15464;50.988;10.318;2023-07-31T00:46:18;98580.88;;;15.67;87.72
28181;BME280;15464;50.988;10.318;2023-07-31T00:48:45;98586.88;;;15.69;87.16
28181;BME280;15464;50.988;10.318;2023-07-31T00:51:11;98569.50;;;15.65;86.86
28181;BME280;15464;50.988;10.318;2023-07-31T00:53:38;98567.31;;;15.68;86.75
28181;BME280;15464;50.988;10.318;2023-07-31T00:56:07;98560.31;;;15.67;85.92
28181;BME280;15464;50.988;10.318;2023-07-31T00:58:34;98557.47;;;15.69;86.64
28181;BME280;15464;50.988;10.318;2023-07-31T01:01:01;98554.16;;;15.67;85.30
28181;BME280;15464;50.988;10.318;2023-07-31T01:03:27;98545.09;;;15.68;85.88
28181;BME280;15464;50.988;10.318;2023-07-31T01:06:22;98538.56;;;15.70;85.97
28181;BME280;15464;50.988;10.318;2023-07-31T01:08:54;98540.41;;;15.70;85.48
28181;BME280;15464;50.988;10.318;2023-07-31T01:11:35;98533.06;;;15.72;84.88
28181;BME280;15464;50.988;10.318;2023-07-31T01:14:08;98530.84;;;15.76;84.66
28181;BME280;15464;50.988;10.318;2023-07-31T01:16:34;98526.00;;;15.79;84.08
28181;BME280;15464;50.988;10.318;2023-07-31T01:19:01;98530.00;;;15.83;82.90
28181;BME280;15464;50.988;10.318;2023-07-31T01:24:30;98530.66;;;15.85;83.07
28181;BME280;15464;50.988;10.318;2023-07-31T01:27:14;98521.13;;;15.83;82.99
28181;BME280;15464;50.988;10.318;2023-07-31T01:29:47;98517.63;;;15.82;83.59
28181;BME280;15464;50.988;10.318;2023-07-31T01:32:18;98524.34;;;15.78;84.52
28181;BME280;15464;50.988;10.318;2023-07-31T01:34:46;98509.16;;;15.70;85.45
28181;BME280;15464;50.988;10.318;2023-07-31T01:37:13;98521.72;;;15.62;87.04
28181;BME280;15464;50.988;10.318;2023-07-31T01:39:40;98516.06;;;15.57;88.15
28181;BME280;15464;50.988;10.318;2023-07-31T01:42:06;98521.78;;;15.54;87.25
28181;BME280;15464;50.988;10.318;2023-07-31T01:44:34;98512.75;;;15.55;88.85
28181;BME280;15464;50.988;10.318;2023-07-31T01:47:00;98512.22;;;15.51;89.11
28181;BME280;15464;50.988;10.318;2023-07-31T01:49:27;98521.59;;;15.47;89.63
28181;BME280;15464;50.988;10.318;2023-07-31T01:51:54;98524.78;;;15.43;89.69
28181;BME280;15464;50.988;10.318;2023-07-31T01:54:20;98514.09;;;15.43;90.23
28181;BME280;15464;50.988;10.318;2023-07-31T01:56:47;98508.41;;;15.38;91.22
28181;BME280;15464;50.988;10.318;2023-07-31T01:59:14;98512.75;;;15.39;91.02
28181;BME280;15464;50.988;10.318;2023-07-31T02:01:40;98517.78;;;15.33;92.04
28181;BME280;15464;50.988;10.318;2023-07-31T02:04:07;98510.09;;;15.30;91.63
28181;BME280;15464;50.988;10.318;2023-07-31T02:06:34;98501.91;;;15.32;92.07
28181;BME280;15464;50.988;10.318;2023-07-31T02:09:00;98505.09;;;15.27;92.99
28181;BME280;15464;50.988;10.318;2023-07-31T02:11:27;98513.81;;;15.29;93.42
28181;BME280;15464;50.988;10.318;2023-07-31T02:13:54;98506.47;;;15.23;94.95
28181;BME280;15464;50.988;10.318;2023-07-31T02:16:21;98508.31;;;15.15;95.21
28181;BME280;15464;50.988;10.318;2023-07-31T02:18:47;98504.81;;;15.14;96.34
28181;BME280;15464;50.988;10.318;2023-07-31T02:21:14;98502.81;;;15.16;96.41
28181;BME280;15464;50.988;10.318;2023-07-31T02:23:41;98499.31;;;15.16;96.71
28181;BME280;15464;50.988;10.318;2023-07-31T02:26:08;98505.50;;;15.08;98.26
28181;BME280;15464;50.988;10.318;2023-07-31T02:28:34;98503.50;;;15.02;99.33
28181;BME280;15464;50.988;10.318;2023-07-31T02:31:01;98501.50;;;14.96;100.00
28181;BME280;15464;50.988;10.318;2023-07-31T02:33:28;98503.50;;;14.94;100.00
28181;BME280;15464;50.988;10.318;2023-07-31T02:35:54;98505.53;;;14.92;100.00
28181;BME280;15464;50.988;10.318;2023-07-31T02:38:21;98506.38;;;14.92;100.00
28181;BME280;15464;50.988;10.318;2023-07-31T02:40:48;98511.72;;;14.92;100.00
28181;BME280;15464;50.988;10.318;2023-07-31T02:43:15;98501.88;;;14.85;100.00
28181;BME280;15464;50.988;10.318;2023-07-31T02:45:41;98493.00;;;14.84;100.00
28181;BME280;15464;50.988;10.318;2023-07-31T02:48:08;98495.16;;;14.81;100.00
28181;BME280;15464;50.988;10.318;2023-07-31T02:50:35;98491.50;;;14.82;100.00
28181;BME280;15464;50.988;10.318;2023-07-31T02:53:01;98492.19;;;14.84;100.00
28181;BME280;15464;50.988;10.318;2023-07-31T02:55:28;98492.84;;;14.86;100.00
28181;BME280;15464;50.988;10.318;2023-07-31T02:57:55;98496.84;;;14.82;100.00
28181;BME280;15464;50.988;10.318;2023-07-31T03:00:21;98494.16;;;14.82;100.00
28181;BME280;15464;50.988;10.318;2023-07-31T03:02:48;98497.84;;;14.81;100.00
28181;BME280;15464;50.988;10.318;2023-07-31T03:05:15;98498.34;;;14.84;100.00
28181;BME280;15464;50.988;10.318;2023-07-31T03:07:42;98497.34;;;14.85;100.00
28181;BME280;15464;50.988;10.318;2023-07-31T03:10:08;98494.16;;;14.82;100.00
28181;BME280;15464;50.988;10.318;2023-07-31T03:12:35;98503.53;;;14.78;100.00
28181;BME280;15464;50.988;10.318;2023-07-31T03:15:02;98500.69;;;14.79;100.00
28181;BME280;15464;50.988;10.318;2023-07-31T03:17:29;98510.03;;;14.75;100.00
28181;BME280;15464;50.988;10.318;2023-07-31T03:19:55;98493.38;;;14.73;100.00
28181;BME280;15464;50.988;10.318;2023-07-31T03:22:22;98500.53;;;14.73;100.00
28181;BME280;15464;50.988;10.318;2023-07-31T03:24:49;98496.72;;;14.67;100.00
28181;BME280;15464;50.988;10.318;2023-07-31T03:27:15;98500.38;;;14.66;100.00
28181;BME280;15464;50.988;10.318;2023-07-31T03:29:42;98495.03;;;14.66;100.00
28181;BME280;15464;50.988;10.318;2023-07-31T03:32:09;98495.88;;;14.67;100.00
28181;BME280;15464;50.988;10.318;2023-07-31T03:34:35;98487.50;;;14.70;100.00
28181;BME280;15464;50.988;10.318;2023-07-31T03:37:02;98501.53;;;14.64;100.00
28181;BME280;15464;50.988;10.318;2023-07-31T03:39:31;98489.69;;;14.66;100.00
28181;BME280;15464;50.988;10.318;2023-07-31T03:41:57;98481.53;;;14.68;100.00
28181;BME280;15464;50.988;10.318;2023-07-31T03:44:24;98471.16;;;14.65;100.00
28181;BME280;15464;50.988;10.318;2023-07-31T03:46:51;98471.00;;;14.66;100.00
28181;BME280;15464;50.988;10.318;2023-07-31T03:49:17;98477.81;;;14.69;100.00
28181;BME280;15464;50.988;10.318;2023-07-31T03:51:44;98477.81;;;14.69;100.00
28181;BME280;15464;50.988;10.318;2023-07-31T03:54:11;98476.50;;;14.65;100.00
28181;BME280;15464;50.988;10.318;2023-07-31T03:56:39;98470.34;;;14.64;100.00
28181;BME280;15464;50.988;10.318;2023-07-31T03:59:06;98477.81;;;14.69;100.00
28181;BME280;15464;50.988;10.318;2023-07-31T04:01:33;98473.31;;;14.69;100.00
28181;BME280;15464;50.988;10.318;2023-07-31T04:03:59;98475.84;;;14.71;100.00
28181;BME280;15464;50.988;10.318;2023-07-31T04:06:26;98471.81;;;14.75;100.00
28181;BME280;15464;50.988;10.318;2023-07-31T04:08:53;98470.97;;;14.74;100.00
28181;BME280;15464;50.988;10.318;2023-07-31T04:11:20;98469.66;;;14.78;100.00
28181;BME280;15464;50.988;10.318;2023-07-31T04:13:46;98471.97;;;14.81;100.00
28181;BME280;15464;50.988;10.318;2023-07-31T04:16:13;98474.16;;;14.86;100.00
28181;BME280;15464;50.988;10.318;2023-07-31T04:18:40;98469.66;;;14.86;100.00
28181;BME280;15464;50.988;10.318;2023-07-31T04:21:06;98472.13;;;14.88;100.00
28181;BME280;15464;50.988;10.318;2023-07-31T04:23:33;98469.78;;;14.93;100.00
28181;BME280;15464;50.988;10.318;2023-07-31T04:26:00;98470.47;;;14.95;100.00
28181;BME280;15464;50.988;10.318;2023-07-31T04:28:26;98464.13;;;14.96;100.00
28181;BME280;15464;50.988;10.318;2023-07-31T04:30:53;98471.78;;;14.99;100.00
28181;BME280;15464;50.988;10.318;2023-07-31T04:33:20;98473.44;;;15.00;100.00
28181;BME280;15464;50.988;10.318;2023-07-31T04:35:53;98467.94;;;15.02;100.00
28181;BME280;15464;50.988;10.318;2023-07-31T04:38:20;98468.94;;;15.01;100.00
28181;BME280;15464;50.988;10.318;2023-07-31T04:40:47;98475.78;;;15.03;100.00
28181;BME280;15464;50.988;10.318;2023-07-31T04:43:14;98479.78;;;15.07;100.00
28181;BME280;15464;50.988;10.318;2023-07-31T04:45:47;98471.44;;;15.10;100.00
28181;BME280;15464;50.988;10.318;2023-07-31T04:48:14;98476.09;;;15.16;100.00
28181;BME280;15464;50.988;10.318;2023-07-31T04:50:41;98479.06;;;15.21;99.54
28181;BME280;15464;50.988;10.318;2023-07-31T04:53:08;98480.75;;;15.22;100.00
28181;BME280;15464;50.988;10.318;2023-07-31T04:55:35;98469.69;;;15.25;99.66
28181;BME280;15464;50.988;10.318;2023-07-31T04:58:02;98472.22;;;15.27;99.79
28181;BME280;15464;50.988;10.318;2023-07-31T05:00:28;98467.69;;;15.27;99.29
28181;BME280;15464;50.988;10.318;2023-07-31T05:02:55;98467.69;;;15.27;99.24
28181;BME280;15464;50.988;10.318;2023-07-31T05:05:22;98476.72;;;15.26;99.12
28181;BME280;15464;50.988;10.318;2023-07-31T05:07:49;98472.69;;;15.30;99.06
28181;BME280;15464;50.988;10.318;2023-07-31T05:10:15;98489.06;;;15.27;98.68
28181;BME280;15464;50.988;10.318;2023-07-31T05:12:42;98483.72;;;15.27;98.36
28181;BME280;15464;50.988;10.318;2023-07-31T05:15:09;98488.72;;;15.30;99.24
28181;BME280;15464;50.988;10.318;2023-07-31T05:17:36;98492.91;;;15.33;99.39
28181;BME280;15464;50.988;10.318;2023-07-31T05:20:03;98503.09;;;15.29;99.13
28181;BME280;15464;50.988;10.318;2023-07-31T05:22:29;98498.09;;;15.26;100.00
28181;BME280;15464;50.988;10.318;2023-07-31T05:24:56;98495.25;;;15.28;100.00
28181;BME280;15464;50.988;10.318;2023-07-31T05:27:23;98492.41;;;15.29;100.00
28181;BME280;15464;50.988;10.318;2023-07-31T05:29:49;98476.72;;;15.26;100.00
28181;BME280;15464;50.988;10.318;2023-07-31T05:32:16;98484.72;;;15.26;100.00
28181;BME280;15464;50.988;10.318;2023-07-31T05:34:43;98481.22;;;15.26;100.00
28181;BME280;15464;50.988;10.318;2023-07-31T05:37:10;98478.38;;;15.27;100.00
28181;BME280;15464;50.988;10.318;2023-07-31T05:39:38;98479.69;;;15.40;100.00
28181;BME280;15464;50.988;10.318;2023-07-31T05:42:05;98475.00;;;15.42;100.00
28181;BME280;15464;50.988;10.318;2023-07-31T05:44:32;98472.34;;;15.42;100.00
28181;BME280;15464;50.988;10.318;2023-07-31T05:46:58;98474.66;;;15.45;100.00
28181;BME280;15464;50.988;10.318;2023-07-31T05:49:25;98478.81;;;15.47;100.00
28181;BME280;15464;50.988;10.318;2023-07-31T05:51:52;98477.63;;;15.50;100.00
28181;BME280;15464;50.988;10.318;2023-07-31T05:54:18;98476.50;;;15.52;100.00
28181;BME280;15464;50.988;10.318;2023-07-31T05:56:45;98474.97;;;15.58;100.00
28181;BME280;15464;50.988;10.318;2023-07-31T05:59:12;98466.25;;;15.64;100.00
28181;BME280;15464;50.988;10.318;2023-07-31T06:01:39;98463.56;;;15.64;99.98
28181;BME280;15464;50.988;10.318;2023-07-31T06:04:06;98457.53;;;15.70;100.00
28181;BME280;15464;50.988;10.318;2023-07-31T06:06:33;98456.84;;;15.68;99.49
28181;BME280;15464;50.988;10.318;2023-07-31T06:09:00;98462.88;;;15.70;99.73
28181;BME280;15464;50.988;10.318;2023-07-31T06:11:27;98457.88;;;15.67;98.29
28181;BME280;15464;50.988;10.318;2023-07-31T06:13:54;98465.84;;;15.75;98.88
28181;BME280;15464;50.988;10.318;2023-07-31T06:16:20;98454.97;;;15.77;98.68
28181;BME280;15464;50.988;10.318;2023-07-31T06:18:48;98450.13;;;15.80;98.21
28181;BME280;15464;50.988;10.318;2023-07-31T06:21:14;98458.16;;;15.80;98.44
28181;BME280;15464;50.988;10.318;2023-07-31T06:23:41;98454.94;;;15.85;98.17
28181;BME280;15464;50.988;10.318;2023-07-31T06:26:08;98457.13;;;15.81;97.55
28181;BME280;15464;50.988;10.318;2023-07-31T06:28:35;98453.09;;;15.85;96.71
28181;BME280;15464;50.988;10.318;2023-07-31T06:31:01;98446.75;;;15.86;96.64
28181;BME280;15464;50.988;10.318;2023-07-31T06:33:28;98443.53;;;15.91;96.18
28181;BME280;15464;50.988;10.318;2023-07-31T06:35:55;98441.03;;;15.89;96.50
28181;BME280;15464;50.988;10.318;2023-07-31T06:38:24;98438.84;;;15.93;96.16
28181;BME280;15464;50.988;10.318;2023-07-31T06:40:51;98440.69;;;15.92;97.59
28181;BME280;15464;50.988;10.318;2023-07-31T06:43:18;98437.19;;;15.92;96.32
28181;BME280;15464;50.988;10.318;2023-07-31T06:45:45;98432.97;;;15.97;94.57
28181;BME280;15464;50.988;10.318;2023-07-31T06:48:12;98433.91;;;16.04;94.62
28181;BME280;15464;50.988;10.318;2023-07-31T06:50:39;98436.88;;;16.09;95.37
28181;BME280;15464;50.988;10.318;2023-07-31T06:53:06;98440.22;;;16.11;94.73
28181;BME280;15464;50.988;10.318;2023-07-31T06:55:33;98430.81;;;16.16;93.17
28181;BME280;15464;50.988;10.318;2023-07-31T06:57:59;98429.28;;;16.21;93.77
28181;BME280;15464;50.988;10.318;2023-07-31T07:00:27;98427.72;;;16.27;93.74
28181;BME280;15464;50.988;10.318;2023-07-31T07:02:53;98428.38;;;16.29;92.74
28181;BME280;15464;50.988;10.318;2023-07-31T07:05:20;98418.31;;;16.31;93.22
28181;BME280;15464;50.988;10.318;2023-07-31T07:07:49;98420.47;;;16.35;93.08
28181;BME280;15464;50.988;10.318;2023-07-31T07:10:16;98420.94;;;16.39;91.77
28181;BME280;15464;50.988;10.318;2023-07-31T07:12:42;98420.59;;;16.42;91.10
28181;BME280;15464;50.988;10.318;2023-07-31T07:15:09;98419.84;;;16.48;90.79
28181;BME280;15464;50.988;10.318;2023-07-31T07:17:36;98422.81;;;16.53;90.55
28181;BME280;15464;50.988;10.318;2023-07-31T07:20:03;98422.97;;;16.60;89.92
28181;BME280;15464;50.988;10.318;2023-07-31T07:22:30;98418.34;;;16.68;88.95
28181;BME280;15464;50.988;10.318;2023-07-31T07:24:57;98416.97;;;16.72;89.08
28181;BME280;15464;50.988;10.318;2023-07-31T07:27:23;98430.66;;;16.77;89.18
28181;BME280;15464;50.988;10.318;2023-07-31T07:29:51;98437.94;;;16.83;88.47
28181;BME280;15464;50.988;10.318;2023-07-31T07:32:20;98422.53;;;16.85;87.82
28181;BME280;15464;50.988;10.318;2023-07-31T07:34:48;98422.06;;;16.97;88.63
28181;BME280;15464;50.988;10.318;2023-07-31T07:37:16;98423.34;;;17.01;88.18
28181;BME280;15464;50.988;10.318;2023-07-31T07:39:43;98416.81;;;17.03;87.40
28181;BME280;15464;50.988;10.318;2023-07-31T07:42:10;98433.34;;;17.07;87.27
28181;BME280;15464;50.988;10.318;2023-07-31T07:44:36;98430.31;;;17.10;87.43
28181;BME280;15464;50.988;10.318;2023-07-31T07:47:04;98429.00;;;17.06;86.79
28181;BME280;15464;50.988;10.318;2023-07-31T07:49:34;98435.56;;;17.03;88.61
28181;BME280;15464;50.988;10.318;2023-07-31T07:52:02;98424.69;;;17.05;91.18
28181;BME280;15464;50.988;10.318;2023-07-31T07:54:30;98424.38;;;17.00;91.70
28181;BME280;15464;50.988;10.318;2023-07-31T07:56:56;98429.00;;;16.91;93.19
28181;BME280;15464;50.988;10.318;2023-07-31T07:59:23;98427.78;;;16.93;93.92
28181;BME280;15464;50.988;10.318;2023-07-31T08:01:50;98426.78;;;16.94;92.00
28181;BME280;15464;50.988;10.318;2023-07-31T08:04:16;98426.78;;;17.09;94.63
28181;BME280;15464;50.988;10.318;2023-07-31T08:06:43;98423.44;;;17.07;94.40
28181;BME280;15464;50.988;10.318;2023-07-31T08:09:10;98429.81;;;17.06;95.01
28181;BME280;15464;50.988;10.318;2023-07-31T08:11:37;98431.50;;;17.07;94.72
28181;BME280;15464;50.988;10.318;2023-07-31T08:14:03;98438.34;;;17.10;93.34
28181;BME280;15464;50.988;10.318;2023-07-31T08:16:30;98435.28;;;17.13;92.28
28181;BME280;15464;50.988;10.318;2023-07-31T08:18:57;98429.53;;;17.30;93.34
28181;BME280;15464;50.988;10.318;2023-07-31T08:21:24;98424.91;;;17.39;92.06
28181;BME280;15464;50.988;10.318;2023-07-31T08:23:50;98415.34;;;17.30;90.50
28181;BME280;15464;50.988;10.318;2023-07-31T08:26:18;98422.91;;;17.41;90.78
28181;BME280;15464;50.988;10.318;2023-07-31T08:28:45;98420.22;;;17.41;90.34
28181;BME280;15464;50.988;10.318;2023-07-31T08:31:12;98414.28;;;17.46;89.66
28181;BME280;15464;50.988;10.318;2023-07-31T08:33:39;98413.97;;;17.55;88.70
28181;BME280;15464;50.988;10.318;2023-07-31T08:36:06;98406.75;;;17.70;88.27
28181;BME280;15464;50.988;10.318;2023-07-31T08:38:33;98399.38;;;17.72;87.15
28181;BME280;15464;50.988;10.318;2023-07-31T08:41:00;98406.72;;;17.85;88.91
28181;BME280;15464;50.988;10.318;2023-07-31T08:43:30;98398.63;;;17.79;86.53
28181;BME280;15464;50.988;10.318;2023-07-31T08:45:57;98397.19;;;17.83;85.42
28181;BME280;15464;50.988;10.318;2023-07-31T08:48:24;98398.75;;;17.92;86.06
28181;BME280;15464;50.988;10.318;2023-07-31T08:50:52;98400.66;;;17.98;84.78
28181;BME280;15464;50.988;10.318;2023-07-31T08:53:19;98398.75;;;17.92;81.19
28181;BME280;15464;50.988;10.318;2023-07-31T08:55:48;98392.56;;;17.91;81.49
28181;BME280;15464;50.988;10.318;2023-07-31T08:58:17;98400.47;;;17.99;82.96
28181;BME280;15464;50.988;10.318;2023-07-31T09:00:45;98397.53;;;18.16;81.38
28181;BME280;15464;50.988;10.318;2023-07-31T09:03:17;98403.28;;;18.12;80.10
28181;BME280;15464;50.988;10.318;2023-07-31T09:05:46;98399.00;;;18.18;80.31
28181;BME280;15464;50.988;10.318;2023-07-31T09:08:15;98398.75;;;18.34;81.33
28181;BME280;15464;50.988;10.318;2023-07-31T09:10:45;98401.25;;;18.36;80.10
28181;BME280;15464;50.988;10.318;2023-07-31T09:13:13;98404.75;;;18.36;79.81
28181;BME280;15464;50.988;10.318;2023-07-31T09:15:43;98402.69;;;18.38;80.42
28181;BME280;15464;50.988;10.318;2023-07-31T09:18:10;98402.69;;;18.38;80.17
28181;BME280;15464;50.988;10.318;2023-07-31T09:20:37;98398.59;;;18.42;82.29
28181;BME280;15464;50.988;10.318;2023-07-31T09:23:09;98401.66;;;18.39;80.36
28181;BME280;15464;50.988;10.318;2023-07-31T09:25:37;98409.84;;;18.31;80.73
28181;BME280;15464;50.988;10.318;2023-07-31T09:28:06;98406.56;;;18.29;80.38
28181;BME280;15464;50.988;10.318;2023-07-31T09:30:50;98403.66;;;18.31;80.55
28181;BME280;15464;50.988;10.318;2023-07-31T09:33:18;98406.34;;;18.31;79.53
28181;BME280;15464;50.988;10.318;2023-07-31T09:35:46;98401.28;;;18.42;79.76
28181;BME280;15464;50.988;10.318;2023-07-31T09:38:14;98400.69;;;18.47;79.64
28181;BME280;15464;50.988;10.318;2023-07-31T09:40:43;98398.25;;;18.52;79.23
28181;BME280;15464;50.988;10.318;2023-07-31T09:43:12;98401.69;;;18.61;78.34
28181;BME280;15464;50.988;10.318;2023-07-31T09:45:41;98393.84;;;18.66;77.58
28181;BME280;15464;50.988;10.318;2023-07-31T09:48:10;98406.75;;;18.77;78.37
28181;BME280;15464;50.988;10.318;2023-07-31T09:50:39;98405.53;;;18.79;75.58
28181;BME280;15464;50.988;10.318;2023-07-31T09:53:06;98392.94;;;18.86;76.22
28181;BME280;15464;50.988;10.318;2023-07-31T09:55:34;98405.06;;;18.76;75.06
28181;BME280;15464;50.988;10.318;2023-07-31T09:58:06;98405.72;;;18.78;76.68
28181;BME280;15464;50.988;10.318;2023-07-31T10:00:34;98394.97;;;18.78;75.41
28181;BME280;15464;50.988;10.318;2023-07-31T10:03:04;98386.81;;;18.99;77.68
28181;BME280;15464;50.988;10.318;2023-07-31T10:05:40;98385.22;;;19.05;75.53
28181;BME280;15464;50.988;10.318;2023-07-31T10:08:09;98377.53;;;19.02;75.21
28181;BME280;15464;50.988;10.318;2023-07-31T10:10:43;98368.06;;;19.12;74.90
28181;BME280;15464;50.988;10.318;2023-07-31T10:13:11;98371.22;;;19.16;76.61
28181;BME280;15464;50.988;10.318;2023-07-31T10:15:38;98365.88;;;18.88;74.48
28181;BME280;15464;50.988;10.318;2023-07-31T10:18:08;98382.97;;;18.80;75.83
28181;BME280;15464;50.988;10.318;2023-07-31T10:20:35;98381.31;;;18.73;75.51
28181;BME280;15464;50.988;10.318;2023-07-31T10:23:03;98379.19;;;18.68;78.91
28181;BME280;15464;50.988;10.318;2023-07-31T10:25:30;98382.28;;;18.65;78.21
28181;BME280;15464;50.988;10.318;2023-07-31T10:27:58;98383.47;;;18.63;80.47
28181;BME280;15464;50.988;10.318;2023-07-31T10:30:28;98377.38;;;18.47;82.68
28181;BME280;15464;50.988;10.318;2023-07-31T10:32:57;98393.31;;;18.28;82.92
28181;BME280;15464;50.988;10.318;2023-07-31T10:35:24;98381.97;;;18.32;82.55
28181;BME280;15464;50.988;10.318;2023-07-31T10:37:52;98380.06;;;18.26;83.80
28181;BME280;15464;50.988;10.318;2023-07-31T10:40:24;98372.19;;;18.25;84.42
28181;BME280;15464;50.988;10.318;2023-07-31T10:42:53;98366.78;;;18.18;83.77
28181;BME280;15464;50.988;10.318;2023-07-31T10:48:22;98359.41;;;18.48;85.55
28181;BME280;15464;50.988;10.318;2023-07-31T10:50:59;98346.03;;;18.54;86.03
28181;BME280;15464;50.988;10.318;2023-07-31T10:53:29;98350.16;;;18.85;86.73
28181;BME280;15464;50.988;10.318;2023-07-31T10:56:00;98357.72;;;18.75;85.11
28181;BME280;15464;50.988;10.318;2023-07-31T10:58:27;98359.41;;;18.76;84.78
28181;BME280;15464;50.988;10.318;2023-07-31T11:01:12;98351.41;;;18.89;86.23
28181;BME280;15464;50.988;10.318;2023-07-31T11:06:10;98341.13;;;18.99;89.66
28181;BME280;15464;50.988;10.318;2023-07-31T11:08:45;98333.94;;;19.06;85.43
28181;BME280;15464;50.988;10.318;2023-07-31T11:11:13;98333.53;;;19.09;86.61
28181;BME280;15464;50.988;10.318;2023-07-31T11:16:13;98331.47;;;19.05;86.34
28181;BME280;15464;50.988;10.318;2023-07-31T11:18:43;98331.50;;;19.18;87.58
28181;BME280;15464;50.988;10.318;2023-07-31T11:21:18;98315.34;;;19.18;86.59
28181;BME280;15464;50.988;10.318;2023-07-31T11:23:51;98319.97;;;19.37;84.28
28181;BME280;15464;50.988;10.318;2023-07-31T11:26:19;98331.03;;;19.08;85.14
28181;BME280;15464;50.988;10.318;2023-07-31T11:28:47;98331.03;;;19.08;85.85
28181;BME280;15464;50.988;10.318;2023-07-31T11:31:15;98312.28;;;19.21;87.18
28181;BME280;15464;50.988;10.318;2023-07-31T11:33:42;98317.78;;;19.06;86.13
28181;BME280;15464;50.988;10.318;2023-07-31T11:36:17;98319.06;;;19.10;86.92
28181;BME280;15464;50.988;10.318;2023-07-31T11:38:44;98315.38;;;19.11;87.06
28181;BME280;15464;50.988;10.318;2023-07-31T11:41:14;98310.34;;;19.02;86.40
28181;BME280;15464;50.988;10.318;2023-07-31T11:43:42;98311.56;;;18.99;85.49
28181;BME280;15464;50.988;10.318;2023-07-31T11:46:09;98304.63;;;18.77;85.70
28181;BME280;15464;50.988;10.318;2023-07-31T11:48:37;98305.44;;;18.71;85.40
28181;BME280;15464;50.988;10.318;2023-07-31T11:51:05;98307.13;;;18.78;85.87
28181;BME280;15464;50.988;10.318;2023-07-31T11:56:12;98309.34;;;18.68;85.72
28181;BME280;15464;50.988;10.318;2023-07-31T11:58:40;98320.81;;;18.56;85.45
28181;BME280;15464;50.988;10.318;2023-07-31T12:01:09;98310.34;;;18.61;85.21
28181;BME280;15464;50.988;10.318;2023-07-31T12:03:37;98299.19;;;18.64;84.27
28181;BME280;15464;50.988;10.318;2023-07-31T12:06:04;98299.88;;;18.72;83.35
28181;BME280;15464;50.988;10.318;2023-07-31T12:08:31;98304.59;;;18.70;82.55
28181;BME280;15464;50.988;10.318;2023-07-31T12:11:05;98298.59;;;18.68;83.29
28181;BME280;15464;50.988;10.318;2023-07-31T12:13:33;98293.97;;;18.56;81.54
28181;BME280;15464;50.988;10.318;2023-07-31T12:16:01;98293.16;;;18.62;81.80
28181;BME280;15464;50.988;10.318;2023-07-31T12:18:37;98286.91;;;18.89;82.72
28181;BME280;15464;50.988;10.318;2023-07-31T12:21:06;98291.78;;;19.13;83.38
28181;BME280;15464;50.988;10.318;2023-07-31T12:23:35;98282.13;;;19.32;79.35
28181;BME280;15464;50.988;10.318;2023-07-31T12:26:13;98284.41;;;19.28;79.16
28181;BME280;15464;50.988;10.318;2023-07-31T12:28:42;98267.81;;;19.25;80.58
28181;BME280;15464;50.988;10.318;2023-07-31T12:31:11;98272.63;;;19.29;81.01
28181;BME280;15464;50.988;10.318;2023-07-31T12:33:39;98270.72;;;19.23;79.69
28181;BME280;15464;50.988;10.318;2023-07-31T12:36:11;98269.69;;;19.31;80.50
28181;BME280;15464;50.988;10.318;2023-07-31T12:38:38;98273.00;;;19.26;79.55
28181;BME280;15464;50.988;10.318;2023-07-31T12:41:05;98268.66;;;19.25;79.68
28181;BME280;15464;50.988;10.318;2023-07-31T12:43:37;98271.72;;;19.09;79.07
28181;BME280;15464;50.988;10.318;2023-07-31T12:46:04;98259.88;;;18.97;79.25
28181;BME280;15464;50.988;10.318;2023-07-31T12:48:31;98255.75;;;19.01;78.95
28181;BME280;15464;50.988;10.318;2023-07-31T12:50:58;98274.78;;;19.06;78.08
28181;BME280;15464;50.988;10.318;2023-07-31T12:53:25;98253.28;;;19.06;78.03
28181;BME280;15464;50.988;10.318;2023-07-31T12:55:52;98241.53;;;19.20;77.48
28181;BME280;15464;50.988;10.318;2023-07-31T12:58:18;98251.28;;;19.21;77.37
28181;BME280;15464;50.988;10.318;2023-07-31T13:00:45;98240.19;;;19.51;74.82
28181;BME280;15464;50.988;10.318;2023-07-31T13:03:11;98225.47;;;20.26;74.03
28181;BME280;15464;50.988;10.318;2023-07-31T13:05:38;98227.75;;;20.29;72.31